Sukkur Weather



Sukkur's Current Weather

Temprature 16o mist

mist

Rain: 0 %

Min Temprature16o
Max Temprature16o
Humidity82
Wind Speed2.1 m/h
Sun Rise07:05:33
Sun Set17:30:41
Current Time: 12-Dec-2019 01:31:07
Lat/Lon: 27.7, 68.86




Sukkur's Geo Location



Sukkur's Weather Forecast

Time Overall Temp Min Temp Max Temp Humidity Wind Speed Rain
12-Dec-2019 (Thu)
02:00:00 broken clouds 13.970 13.970 18.510 64 5.51 m/h 0 %
05:00:00 broken clouds 14.050 14.050 17.460 54 6.21 m/h 0 %
08:00:00 overcast clouds 13.690 13.690 15.960 64 6.74 m/h 0 %
11:00:00 broken clouds 15.730 15.730 16.870 63 7.93 m/h 0 %
14:00:00 few clouds 18.890 18.890 18.890 56 6.55 m/h 0 %
17:00:00 clear sky 17.520 17.520 17.520 59 4.68 m/h 0 %
20:00:00 clear sky 16.240 16.240 16.240 61 3.4 m/h 0 %
23:00:00 clear sky 15.020 15.020 15.020 64 2.17 m/h 0 %
13-Dec-2019 (Fri)
02:00:00 clear sky 13.770 13.770 13.770 71 2.97 m/h 0 %
05:00:00 clear sky 12.840 12.840 12.840 69 2.34 m/h 0 %
08:00:00 clear sky 13.010 13.010 13.010 66 2.44 m/h 0 %
11:00:00 clear sky 17.250 17.250 17.250 49 0.66 m/h 0 %
14:00:00 clear sky 20.500 20.500 20.500 39 1.65 m/h 0 %
17:00:00 clear sky 20.910 20.910 20.910 35 0.81 m/h 0 %
20:00:00 clear sky 18.750 18.750 18.750 40 2.77 m/h 0 %
23:00:00 clear sky 17.700 17.700 17.700 44 3.12 m/h 0 %
14-Dec-2019 (Sat)
02:00:00 clear sky 16.620 16.620 16.620 48 2.5 m/h 0 %
05:00:00 clear sky 15.140 15.140 15.140 53 1.48 m/h 0 %
08:00:00 clear sky 16.210 16.210 16.210 50 1.66 m/h 0 %
11:00:00 clear sky 20.910 20.910 20.910 35 2.03 m/h 0 %
14:00:00 clear sky 23.120 23.120 23.120 29 2.6 m/h 0 %
17:00:00 clear sky 22.640 22.640 22.640 28 2.42 m/h 0 %
20:00:00 clear sky 19.920 19.920 19.920 31 3.68 m/h 0 %
23:00:00 broken clouds 18.250 18.250 18.250 34 3.99 m/h 0 %
15-Dec-2019 (Sun)
02:00:00 overcast clouds 18.110 18.110 18.110 35 3.18 m/h 0 %
05:00:00 overcast clouds 17.580 17.580 17.580 40 3.46 m/h 0 %
08:00:00 overcast clouds 17.280 17.280 17.280 45 3.85 m/h 0 %
11:00:00 overcast clouds 20.000 20.000 20.000 36 3.2 m/h 0 %
14:00:00 few clouds 22.090 22.090 22.090 30 2.73 m/h 0 %
17:00:00 clear sky 21.800 21.800 21.800 31 1.14 m/h 0 %
20:00:00 clear sky 19.240 19.240 19.240 37 2.61 m/h 0 %
23:00:00 clear sky 17.750 17.750 17.750 40 2.82 m/h 0 %
16-Dec-2019 (Mon)
02:00:00 clear sky 16.490 16.490 16.490 44 2.5 m/h 0 %
05:00:00 clear sky 15.290 15.290 15.290 48 2.04 m/h 0 %
08:00:00 clear sky 15.840 15.840 15.840 46 1.83 m/h 0 %
11:00:00 clear sky 20.520 20.520 20.520 34 2.01 m/h 0 %
14:00:00 clear sky 22.250 22.250 22.250 30 1.2 m/h 0 %
17:00:00 clear sky 22.190 22.190 22.190 30 0.44 m/h 0 %
20:00:00 clear sky 19.000 19.000 19.000 37 1.8 m/h 0 %
23:00:00 clear sky 17.910 17.910 17.910 40 2.23 m/h 0 %

Famous Cities (61)